Terminal Aerodrome Forecast
Issued by NWS

Home | Current Version | Previous Version | Graphics & Text | Print | Product List | Glossary On
Versions: 1 2 3 4 5 6 7 8 9 10 11 12 13 14 15 16 17 18 19
000
FTUS42 KMHX 231120
TAFOAJ
TAF
KOAJ 231120Z 2312/2412 09008KT P6SM BKN100
     FM231500 11013KT P6SM VCSH OVC035
     FM232100 11013G24KT 6SM -SHRA OVC030
     FM240100 10012G19KT 4SM RA OVC015
     FM240700 10012G17KT 4SM RA OVC008
     FM240900 10012G18KT 2SM +RA OVC008
      AMD LTD TO CLD VIS AND WIND=

USA.gov is the U.S. government's official web portal to all federal, state and local government web resources and services.